createdAt,value
2023-03-21T00:00:56.293Z,34.77
2023-03-21T00:03:22.993Z,28.80
2023-03-21T00:05:52.065Z,28.30
2023-03-21T00:08:19.224Z,29.20
2023-03-21T00:10:46.412Z,30.97
2023-03-21T00:13:14.336Z,28.90
2023-03-21T00:16:04.238Z,30.70
2023-03-21T00:18:36.707Z,34.50
2023-03-21T00:21:37.663Z,29.87
2023-03-21T00:23:52.069Z,31.17
2023-03-21T00:26:18.547Z,31.57
2023-03-21T00:28:45.151Z,31.50
2023-03-21T00:31:11.634Z,34.47
2023-03-21T00:33:39.518Z,37.33
2023-03-21T00:36:07.574Z,33.03
2023-03-21T00:38:35.644Z,31.27
2023-03-21T00:41:23.322Z,32.60
2023-03-21T00:43:57.516Z,32.50
2023-03-21T00:46:27.596Z,34.63
2023-03-21T00:48:56.631Z,34.47
2023-03-21T00:51:26.703Z,33.43
2023-03-21T00:53:58.528Z,37.27
2023-03-21T00:56:25.295Z,33.03
2023-03-21T00:58:51.981Z,36.73
2023-03-21T01:01:18.938Z,38.93
2023-03-21T01:03:48.151Z,35.10
2023-03-21T01:06:19.361Z,34.50
2023-03-21T01:08:52.612Z,34.27
2023-03-21T01:11:24.786Z,38.43
2023-03-21T01:13:59.601Z,37.73
2023-03-21T01:16:31.889Z,38.00
2023-03-21T01:18:59.674Z,34.67
2023-03-21T01:21:26.565Z,37.47
2023-03-21T01:23:53.080Z,39.67
2023-03-21T01:26:19.952Z,37.23
2023-03-21T01:28:47.010Z,40.00
2023-03-21T01:31:16.305Z,40.77
2023-03-21T01:33:43.872Z,42.23
2023-03-21T01:36:16.757Z,42.07
2023-03-21T01:38:43.892Z,41.47
2023-03-21T01:41:33.615Z,44.60
2023-03-21T01:44:07.369Z,42.03
2023-03-21T01:46:51.537Z,42.70
2023-03-21T01:49:27.849Z,41.13
2023-03-21T01:52:12.255Z,43.67
2023-03-21T01:54:41.972Z,43.43
2023-03-21T01:57:16.459Z,43.90
2023-03-21T01:59:46.745Z,43.30
2023-03-21T02:02:20.801Z,46.33
2023-03-21T02:04:51.276Z,48.67
2023-03-21T02:07:28.906Z,47.30
2023-03-21T02:12:28.486Z,47.70
2023-03-21T02:14:56.342Z,43.20
2023-03-21T02:17:47.587Z,45.37
2023-03-21T02:20:22.198Z,41.70
2023-03-21T02:23:26.107Z,47.47
2023-03-21T02:26:20.608Z,43.37
2023-03-21T02:29:04.315Z,44.53
2023-03-21T02:31:42.118Z,47.80
2023-03-21T02:34:20.726Z,42.03
2023-03-21T02:36:59.483Z,44.87
2023-03-21T02:39:32.297Z,46.53
2023-03-21T02:42:10.214Z,43.50
2023-03-21T02:44:50.460Z,45.67
2023-03-21T02:47:58.742Z,47.73
2023-03-21T02:50:33.482Z,48.63
2023-03-21T02:53:03.473Z,48.70
2023-03-21T02:55:32.435Z,48.37
2023-03-21T02:58:12.493Z,47.43
2023-03-21T03:00:40.630Z,51.33
2023-03-21T03:03:11.385Z,46.57
2023-03-21T03:05:48.126Z,47.07
2023-03-21T03:08:43.153Z,50.83
2023-03-21T03:11:29.529Z,49.23
2023-03-21T03:14:35.917Z,49.77
2023-03-21T03:17:12.302Z,52.37
2023-03-21T03:19:52.836Z,53.43
2023-03-21T03:22:26.713Z,51.17
2023-03-21T03:25:09.652Z,58.20
2023-03-21T03:27:47.465Z,49.67
2023-03-21T03:30:15.309Z,53.53
2023-03-21T03:32:50.218Z,50.07
2023-03-21T03:35:20.266Z,52.43
2023-03-21T03:37:53.587Z,52.73
2023-03-21T03:40:36.437Z,51.83
2023-03-21T03:43:12.095Z,48.60
2023-03-21T03:45:47.554Z,48.27
2023-03-21T03:48:19.479Z,51.17
2023-03-21T03:50:54.378Z,52.90
2023-03-21T03:53:27.104Z,48.80
2023-03-21T03:55:55.965Z,51.33
2023-03-21T03:58:29.186Z,52.67
2023-03-21T04:01:02.921Z,52.70
2023-03-21T04:03:39.260Z,48.93
2023-03-21T04:06:13.750Z,49.67
2023-03-21T04:08:40.852Z,50.27
2023-03-21T04:11:08.143Z,45.77
2023-03-21T04:13:34.700Z,43.77
2023-03-21T04:16:01.428Z,46.23
2023-03-21T04:18:28.168Z,47.53
2023-03-21T04:20:54.679Z,59.50
2023-03-21T04:23:21.684Z,48.80
2023-03-21T04:25:56.448Z,51.77
2023-03-21T04:28:23.532Z,48.73
2023-03-21T04:31:01.371Z,48.63
2023-03-21T04:33:31.454Z,48.33
2023-03-21T04:35:59.282Z,45.23
2023-03-21T04:38:30.747Z,42.73
2023-03-21T04:40:58.491Z,50.30
2023-03-21T04:43:25.042Z,44.23
2023-03-21T04:45:52.361Z,48.43
2023-03-21T04:48:19.694Z,46.33
2023-03-21T04:50:46.923Z,45.17
2023-03-21T04:53:13.465Z,46.33
2023-03-21T04:55:40.070Z,57.97
2023-03-21T04:58:06.820Z,54.80
2023-03-21T05:00:37.580Z,48.40
2023-03-21T05:03:09.357Z,46.40
2023-03-21T05:05:37.866Z,45.00
2023-03-21T05:08:06.184Z,46.30
2023-03-21T05:10:33.350Z,47.40
2023-03-21T05:13:00.233Z,44.17
2023-03-21T05:15:26.750Z,45.63
2023-03-21T05:17:53.224Z,50.13
2023-03-21T05:20:19.868Z,51.17
2023-03-21T05:22:50.257Z,51.40
2023-03-21T05:25:18.219Z,47.63
2023-03-21T05:27:45.491Z,49.93
2023-03-21T05:30:17.974Z,52.80
2023-03-21T05:32:44.618Z,53.13
2023-03-21T05:35:11.166Z,52.27
2023-03-21T05:37:38.492Z,52.20
2023-03-21T05:40:06.951Z,53.27
2023-03-21T05:42:33.477Z,56.93
2023-03-21T05:45:00.889Z,59.83
2023-03-21T05:47:27.401Z,62.53
2023-03-21T05:49:53.927Z,59.80
2023-03-21T05:52:20.545Z,61.37
2023-03-21T05:54:47.118Z,65.77
2023-03-21T05:57:13.881Z,63.07
2023-03-21T05:59:40.551Z,69.27
2023-03-21T06:02:07.058Z,64.70
2023-03-21T06:04:33.607Z,64.20
2023-03-21T06:07:00.126Z,63.67
2023-03-21T06:09:26.689Z,62.00
2023-03-21T06:11:55.983Z,62.67
2023-03-21T06:14:24.243Z,61.33
2023-03-21T06:16:51.132Z,60.40
2023-03-21T06:19:17.672Z,59.10
2023-03-21T06:21:44.234Z,56.43
2023-03-21T06:24:10.773Z,54.10
2023-03-21T06:26:37.792Z,60.27
2023-03-21T06:29:04.671Z,54.67
2023-03-21T06:31:31.517Z,58.13
2023-03-21T06:33:58.158Z,58.10
2023-03-21T06:36:25.271Z,52.37
2023-03-21T06:38:52.121Z,54.80
2023-03-21T06:41:18.786Z,51.90
2023-03-21T06:43:45.990Z,57.43
2023-03-21T06:46:12.519Z,53.43
2023-03-21T06:48:44.428Z,53.97
2023-03-21T06:51:12.829Z,54.20
2023-03-21T06:53:39.718Z,53.50
2023-03-21T06:56:06.514Z,59.73
2023-03-21T06:58:33.131Z,62.57
2023-03-21T07:01:01.725Z,58.07
2023-03-21T07:03:29.142Z,58.67
2023-03-21T07:05:56.213Z,58.90
2023-03-21T07:08:22.824Z,57.13
2023-03-21T07:13:30.672Z,62.47
2023-03-21T07:15:57.468Z,62.17
2023-03-21T07:18:24.313Z,68.73
2023-03-21T07:20:51.585Z,62.23
2023-03-21T07:23:23.021Z,64.60
2023-03-21T07:25:50.745Z,70.07
2023-03-21T07:28:18.185Z,67.67
2023-03-21T07:30:45.913Z,68.17
2023-03-21T07:33:12.908Z,71.53
2023-03-21T07:35:39.775Z,72.70
2023-03-21T07:38:06.931Z,71.90
2023-03-21T07:40:33.746Z,66.63
2023-03-21T07:43:00.222Z,66.77
2023-03-21T07:45:27.435Z,70.60
2023-03-21T07:47:53.987Z,73.83
2023-03-21T07:50:21.477Z,73.60
2023-03-21T07:52:48.619Z,67.37
2023-03-21T07:55:17.295Z,72.17
2023-03-21T07:57:44.260Z,63.87
2023-03-21T08:00:12.644Z,69.47
2023-03-21T08:02:39.248Z,68.17
2023-03-21T08:05:06.163Z,61.40
2023-03-21T08:07:32.608Z,60.87
2023-03-21T08:09:59.058Z,64.27
2023-03-21T08:12:25.715Z,60.93
2023-03-21T08:14:52.297Z,56.30
2023-03-21T08:17:18.960Z,54.43
2023-03-21T08:19:45.898Z,59.73
2023-03-21T08:22:12.530Z,60.73
2023-03-21T08:24:39.072Z,57.73
2023-03-21T08:27:05.908Z,57.53
2023-03-21T08:29:32.412Z,60.63
2023-03-21T08:31:58.878Z,54.20
2023-03-21T08:34:26.742Z,57.07
2023-03-21T08:36:53.285Z,51.93
2023-03-21T08:39:21.858Z,57.67
2023-03-21T08:41:48.495Z,60.97
2023-03-21T08:44:16.957Z,55.30
2023-03-21T08:46:43.573Z,54.83
2023-03-21T08:49:10.100Z,60.33
2023-03-21T08:51:37.714Z,55.23
2023-03-21T08:54:04.448Z,56.50
2023-03-21T08:56:31.231Z,56.97
2023-03-21T08:58:59.089Z,63.47
2023-03-21T09:01:26.712Z,73.53
2023-03-21T09:03:53.326Z,51.03
2023-03-21T09:06:19.843Z,52.93
2023-03-21T09:08:46.503Z,51.10
2023-03-21T09:11:13.256Z,47.10
2023-03-21T09:13:40.360Z,49.63
2023-03-21T09:16:07.425Z,45.93
2023-03-21T09:18:48.804Z,41.63
2023-03-21T09:21:18.511Z,41.13
2023-03-21T09:23:45.408Z,45.43
2023-03-21T09:26:12.614Z,47.33
2023-03-21T09:28:39.305Z,45.20
2023-03-21T09:31:08.378Z,44.20
2023-03-21T09:33:35.470Z,44.60
2023-03-21T09:36:03.788Z,51.50
2023-03-21T09:38:37.739Z,44.37
2023-03-21T09:41:26.352Z,48.97
2023-03-21T09:44:21.588Z,47.27
2023-03-21T09:47:04.696Z,44.80
2023-03-21T09:49:38.265Z,47.33
2023-03-21T09:52:13.388Z,47.30
2023-03-21T09:54:43.920Z,52.83
2023-03-21T09:57:37.423Z,43.87
2023-03-21T10:00:16.240Z,52.90
2023-03-21T10:02:47.254Z,47.63
2023-03-21T10:05:20.383Z,52.60
2023-03-21T10:08:05.701Z,47.30
2023-03-21T10:10:37.384Z,45.53
2023-03-21T10:13:12.111Z,52.10
2023-03-21T10:15:38.834Z,47.10
2023-03-21T10:18:07.687Z,46.83
2023-03-21T10:20:37.874Z,43.63
2023-03-21T10:23:07.991Z,45.83
2023-03-21T10:25:42.133Z,51.50
2023-03-21T10:28:19.403Z,46.00
2023-03-21T10:30:56.811Z,39.20
2023-03-21T10:33:29.559Z,40.53
2023-03-21T10:36:00.135Z,42.83
2023-03-21T10:38:27.414Z,42.93
2023-03-21T10:40:54.387Z,41.50
2023-03-21T10:43:27.054Z,42.93
2023-03-21T10:45:57.477Z,39.17
2023-03-21T10:48:24.782Z,39.27
2023-03-21T10:50:55.723Z,40.63
2023-03-21T10:53:32.392Z,40.17
2023-03-21T10:56:06.706Z,36.90
2023-03-21T10:58:39.573Z,36.70
2023-03-21T11:01:10.094Z,37.23
2023-03-21T11:03:39.318Z,35.13
2023-03-21T11:06:10.097Z,37.13
2023-03-21T11:08:44.140Z,35.93
2023-03-21T11:11:20.253Z,37.20
2023-03-21T11:13:56.683Z,33.53
2023-03-21T11:16:27.343Z,35.93
2023-03-21T11:19:01.500Z,39.67
2023-03-21T11:21:29.736Z,39.10
2023-03-21T11:23:58.455Z,40.47
2023-03-21T11:26:32.537Z,37.50
2023-03-21T11:28:59.339Z,40.00
2023-03-21T11:31:42.029Z,37.43
2023-03-21T11:34:09.956Z,37.30
2023-03-21T11:36:41.597Z,34.00
2023-03-21T11:39:11.240Z,39.37
2023-03-21T11:41:41.694Z,41.07
2023-03-21T11:44:26.582Z,35.40
2023-03-21T11:46:54.409Z,34.20
2023-03-21T11:49:22.041Z,37.30
2023-03-21T11:52:14.146Z,35.53
2023-03-21T11:54:50.008Z,38.47
2023-03-21T11:57:57.965Z,35.50
2023-03-21T12:00:30.234Z,33.07
2023-03-21T12:03:46.856Z,36.37
2023-03-21T12:06:35.163Z,35.67
2023-03-21T12:09:20.891Z,33.27
2023-03-21T12:12:02.372Z,33.37
2023-03-21T12:14:46.647Z,38.30
2023-03-21T12:17:43.240Z,37.23
2023-03-21T12:20:21.629Z,33.20
2023-03-21T12:22:52.731Z,29.63
2023-03-21T12:25:27.885Z,30.30
2023-03-21T12:28:30.128Z,27.53
2023-03-21T12:31:08.129Z,26.67
2023-03-21T12:34:13.198Z,31.13
2023-03-21T12:36:39.595Z,21.97
2023-03-21T12:39:22.722Z,25.10
2023-03-21T12:42:01.424Z,23.37
2023-03-21T12:44:33.352Z,23.27
2023-03-21T12:47:06.836Z,21.20
2023-03-21T12:49:41.619Z,21.60
2023-03-21T12:52:14.536Z,23.43
2023-03-21T12:54:59.270Z,26.47
2023-03-21T12:57:34.865Z,27.40
2023-03-21T13:00:15.605Z,25.57
2023-03-21T13:02:49.258Z,17.77
2023-03-21T13:05:25.282Z,22.20
2023-03-21T13:08:12.215Z,16.40
2023-03-21T13:10:41.213Z,17.10
2023-03-21T13:13:21.908Z,17.63
2023-03-21T13:16:00.788Z,20.40
2023-03-21T13:18:33.252Z,16.30
2023-03-21T13:21:26.570Z,20.03
2023-03-21T13:24:00.484Z,16.73
2023-03-21T13:26:51.371Z,17.87
2023-03-21T13:29:28.136Z,15.87
2023-03-21T13:31:59.861Z,19.87
2023-03-21T13:34:26.918Z,18.37
2023-03-21T13:36:56.553Z,21.30
2023-03-21T13:39:28.770Z,21.63
2023-03-21T13:41:56.033Z,16.77
2023-03-21T13:44:50.303Z,17.10
2023-03-21T13:47:31.788Z,16.57
2023-03-21T13:50:20.365Z,17.97
2023-03-21T13:53:02.250Z,20.00
2023-03-21T13:55:31.094Z,17.60
2023-03-21T13:57:57.654Z,18.40
2023-03-21T14:00:31.043Z,15.50
2023-03-21T14:03:20.629Z,19.97
2023-03-21T14:05:51.379Z,15.90
2023-03-21T14:08:31.320Z,16.37
2023-03-21T14:11:10.078Z,23.17
2023-03-21T14:13:48.253Z,20.77
2023-03-21T14:16:18.782Z,20.87
2023-03-21T14:18:56.002Z,20.23
2023-03-21T14:21:29.499Z,20.47
2023-03-21T14:24:00.777Z,19.83
2023-03-21T14:26:42.105Z,19.30
2023-03-21T14:29:25.555Z,25.30
2023-03-21T14:31:53.776Z,22.93
2023-03-21T14:34:20.538Z,24.63
2023-03-21T14:36:56.890Z,24.23
2023-03-21T14:39:29.449Z,22.20
2023-03-21T14:42:02.571Z,24.07
2023-03-21T14:44:58.106Z,23.70
2023-03-21T14:47:28.050Z,23.47
2023-03-21T14:49:56.436Z,25.90
2023-03-21T14:52:32.365Z,24.97
2023-03-21T14:55:00.892Z,20.63
2023-03-21T14:57:31.090Z,23.17
2023-03-21T15:00:01.955Z,23.53
2023-03-21T15:02:34.525Z,25.93
2023-03-21T15:05:20.363Z,26.27
2023-03-21T15:07:56.554Z,23.80
2023-03-21T15:10:24.036Z,23.90
2023-03-21T15:12:59.031Z,21.63
2023-03-21T15:15:28.150Z,22.63
2023-03-21T15:17:59.539Z,21.57
2023-03-21T15:20:32.167Z,19.90
2023-03-21T15:23:03.957Z,22.40
2023-03-21T15:25:34.832Z,20.37
2023-03-21T15:28:02.031Z,21.50
2023-03-21T15:30:30.898Z,21.37
2023-03-21T15:33:05.094Z,21.87
2023-03-21T15:35:44.562Z,19.23
2023-03-21T15:38:33.458Z,19.23
2023-03-21T15:41:25.797Z,18.40
2023-03-21T15:44:09.653Z,16.27
2023-03-21T15:46:47.787Z,17.53
2023-03-21T15:49:17.201Z,16.00
2023-03-21T15:51:47.651Z,15.90
2023-03-21T15:54:17.761Z,13.00
2023-03-21T15:56:46.139Z,21.53
2023-03-21T15:59:17.953Z,17.60
2023-03-21T16:01:48.869Z,14.43
2023-03-21T16:04:16.372Z,15.30
2023-03-21T16:06:53.717Z,16.93
2023-03-21T16:09:26.402Z,27.00
2023-03-21T16:11:55.808Z,22.00
2023-03-21T16:14:23.630Z,18.57
2023-03-21T16:16:51.002Z,20.53
2023-03-21T16:19:18.316Z,21.57
2023-03-21T16:21:44.896Z,12.77
2023-03-21T16:24:13.495Z,16.13
2023-03-21T16:26:47.668Z,12.43
2023-03-21T16:29:15.739Z,14.20
2023-03-21T16:31:42.447Z,19.27
2023-03-21T16:34:09.375Z,17.83
2023-03-21T16:36:38.453Z,12.33
2023-03-21T16:39:16.349Z,15.67
2023-03-21T16:41:42.879Z,15.23
2023-03-21T16:44:09.387Z,17.00
2023-03-21T16:46:35.983Z,22.33
2023-03-21T16:49:02.576Z,15.53
2023-03-21T16:51:35.032Z,25.20
2023-03-21T16:54:02.897Z,17.50
2023-03-21T16:56:41.930Z,16.60
2023-03-21T16:59:12.704Z,20.77
2023-03-21T17:01:41.393Z,34.03
2023-03-21T17:04:09.068Z,16.10
2023-03-21T17:06:44.620Z,12.83
2023-03-21T17:09:13.283Z,15.70
2023-03-21T17:11:41.665Z,13.17
2023-03-21T17:14:10.373Z,14.87
2023-03-21T17:16:36.928Z,13.70
2023-03-21T17:19:06.871Z,19.73
2023-03-21T17:21:34.687Z,15.97
2023-03-21T17:24:01.534Z,15.27
2023-03-21T17:26:29.413Z,16.87
2023-03-21T17:28:57.024Z,16.67
2023-03-21T17:31:25.449Z,15.27
2023-03-21T17:33:52.019Z,19.20
2023-03-21T17:36:30.569Z,18.80
2023-03-21T17:38:57.919Z,20.97
2023-03-21T17:41:24.568Z,27.00
2023-03-21T17:43:51.938Z,23.17
2023-03-21T17:46:22.388Z,19.57
2023-03-21T17:48:49.327Z,22.10
2023-03-21T17:51:17.268Z,19.07
2023-03-21T17:53:45.454Z,52.90
2023-03-21T17:56:18.996Z,20.90
2023-03-21T17:58:45.719Z,20.43
2023-03-21T18:01:12.179Z,21.10
2023-03-21T18:03:39.154Z,18.13
2023-03-21T18:06:06.374Z,21.77
2023-03-21T18:08:33.106Z,22.97
2023-03-21T18:10:59.661Z,24.33
2023-03-21T18:13:26.467Z,20.57
2023-03-21T18:15:53.130Z,23.17
2023-03-21T18:18:19.814Z,27.10
2023-03-21T18:20:52.577Z,24.10
2023-03-21T18:23:20.872Z,22.37
2023-03-21T18:25:47.805Z,24.30
2023-03-21T18:28:19.444Z,30.47
2023-03-21T18:33:40.614Z,20.83
2023-03-21T18:36:09.121Z,25.27
2023-03-21T18:38:37.076Z,23.43
2023-03-21T18:41:04.283Z,21.73
2023-03-21T18:46:17.943Z,21.73
2023-03-21T18:48:44.677Z,23.17
2023-03-21T18:51:11.536Z,23.87
2023-03-21T18:53:38.130Z,26.40
2023-03-21T18:56:09.928Z,29.47
2023-03-21T18:58:37.140Z,29.23
2023-03-21T19:01:05.075Z,28.00
2023-03-21T19:03:36.672Z,25.67
2023-03-21T19:06:05.518Z,27.97
2023-03-21T19:08:34.836Z,27.40
2023-03-21T19:11:06.044Z,28.10
2023-03-21T19:13:33.550Z,29.50
2023-03-21T19:16:02.344Z,30.53
2023-03-21T19:18:50.356Z,26.80
2023-03-21T19:21:21.545Z,25.90
2023-03-21T19:24:22.984Z,24.27
2023-03-21T19:26:34.594Z,26.20
2023-03-21T19:29:01.364Z,24.77
2023-03-21T19:31:27.898Z,27.83
2023-03-21T19:33:54.500Z,27.57
2023-03-21T19:36:23.149Z,24.03
2023-03-21T19:38:51.005Z,27.20
2023-03-21T19:41:18.588Z,25.53
2023-03-21T19:43:53.545Z,26.90
2023-03-21T19:46:23.192Z,29.57
2023-03-21T19:48:50.278Z,31.83
2023-03-21T19:51:28.636Z,30.17
2023-03-21T19:53:56.897Z,28.37
2023-03-21T19:56:26.745Z,26.07
2023-03-21T19:58:55.039Z,31.93
2023-03-21T20:01:22.109Z,28.80
2023-03-21T20:03:48.685Z,29.77
2023-03-21T20:06:16.229Z,26.93
2023-03-21T20:09:17.215Z,24.90
2023-03-21T20:11:29.232Z,27.90
2023-03-21T20:13:56.344Z,27.63
2023-03-21T20:16:23.159Z,26.60
2023-03-21T20:18:49.792Z,29.07
2023-03-21T20:21:18.444Z,28.90
2023-03-21T20:23:50.959Z,28.10
2023-03-21T20:26:18.420Z,24.93
2023-03-21T20:29:00.256Z,24.77
2023-03-21T20:31:37.700Z,27.47
2023-03-21T20:34:04.471Z,24.87
2023-03-21T20:36:40.063Z,24.67
2023-03-21T20:39:06.911Z,28.80
2023-03-21T20:41:33.438Z,25.87
2023-03-21T20:46:48.064Z,29.57
2023-03-21T20:49:15.620Z,26.00
2023-03-21T20:54:29.937Z,27.70
2023-03-21T20:56:57.281Z,27.97
2023-03-21T20:59:27.737Z,22.10
2023-03-21T21:01:56.211Z,31.40
2023-03-21T21:04:39.500Z,22.83
2023-03-21T21:07:15.925Z,24.53
2023-03-21T21:09:46.956Z,22.10
2023-03-21T21:12:15.078Z,29.10
2023-03-21T21:14:43.081Z,27.27
2023-03-21T21:17:28.366Z,21.00
2023-03-21T21:19:57.126Z,25.00
2023-03-21T21:22:23.936Z,22.60
2023-03-21T21:24:50.414Z,21.67
2023-03-21T21:27:17.014Z,23.63
2023-03-21T21:29:43.683Z,21.07
2023-03-21T21:32:11.373Z,22.70
2023-03-21T21:34:38.253Z,21.17
2023-03-21T21:37:05.197Z,19.93
2023-03-21T21:39:37.947Z,24.63
2023-03-21T21:42:05.460Z,18.17
2023-03-21T21:44:31.984Z,23.60
2023-03-21T21:46:59.167Z,17.80
2023-03-21T21:49:26.763Z,20.67
2023-03-21T21:51:53.314Z,16.10
2023-03-21T21:54:19.830Z,17.57
2023-03-21T21:56:49.214Z,16.23
2023-03-21T21:59:18.521Z,16.27
2023-03-21T22:01:46.790Z,20.80
2023-03-21T22:04:14.562Z,21.03
2023-03-21T22:06:42.256Z,16.47
2023-03-21T22:09:09.000Z,21.27
2023-03-21T22:11:35.932Z,19.07
2023-03-21T22:14:03.059Z,16.93
2023-03-21T22:16:29.678Z,18.43
2023-03-21T22:18:56.280Z,17.10
2023-03-21T22:21:23.004Z,17.37
2023-03-21T22:23:49.641Z,18.00
2023-03-21T22:26:16.432Z,20.30
2023-03-21T22:28:43.577Z,15.73
2023-03-21T22:31:15.814Z,16.57
2023-03-21T22:33:43.506Z,15.37
2023-03-21T22:36:10.766Z,15.03
2023-03-21T22:38:38.276Z,15.17
2023-03-21T22:41:06.642Z,14.27
2023-03-21T22:43:34.396Z,17.67
2023-03-21T22:46:03.248Z,18.80
2023-03-21T22:48:30.286Z,20.17
2023-03-21T22:50:58.409Z,17.07
2023-03-21T22:53:25.523Z,16.43
2023-03-21T22:55:52.042Z,16.03
2023-03-21T22:58:18.629Z,16.93
2023-03-21T23:00:45.576Z,12.70
2023-03-21T23:03:13.088Z,15.57
2023-03-21T23:05:41.176Z,13.20
2023-03-21T23:08:07.685Z,17.13
2023-03-21T23:10:37.008Z,16.30
2023-03-21T23:13:04.207Z,16.23
2023-03-21T23:15:30.691Z,17.53
2023-03-21T23:17:57.176Z,16.70
2023-03-21T23:20:23.613Z,16.20
2023-03-21T23:22:50.065Z,16.57
2023-03-21T23:25:17.004Z,20.77
2023-03-21T23:27:43.576Z,16.70
2023-03-21T23:30:10.398Z,15.93
2023-03-21T23:32:36.911Z,17.57
2023-03-21T23:35:03.746Z,16.80
2023-03-21T23:37:30.232Z,17.40
2023-03-21T23:39:56.937Z,16.57
2023-03-21T23:42:25.135Z,19.00
2023-03-21T23:44:51.580Z,18.50
2023-03-21T23:47:18.092Z,16.30
2023-03-21T23:49:49.309Z,20.07
2023-03-21T23:52:16.194Z,18.53
2023-03-21T23:54:42.691Z,19.40
2023-03-21T23:57:09.378Z,19.80
2023-03-21T23:59:36.056Z,16.37
